Silver Peak Trail, Santa Catalina Island Weather observations

Data are for 10 minute period ending at time listed.
 Day   Time   Solar   Ave.   Ave.  Ave.  Vector    Max.   Stn.    Total
  of    of     Rad.   Air    Rel.  Wind   Wind     Wind   Baro.  Precip.
Year   Day            Temp.  Hum.  Speed  Dir.     Gust   Pres.         
2015   (PST)   W/m2    F      %     mph   deg.      mph    mb.     in.  
------------------------------------------------------------------------
  87   16:10  438.0    75   37.7     7    235.6    11.9    999.0   0.00  
  87   16:20  324.0    75   37.3     8    228.3    11.9    999.0   0.00  
  87   16:30  327.0    75   37.9     7    226.8    10.8    999.0   0.00  
  87   16:40  331.0    74   38.0     8    223.2    13.7    999.0   0.00  
  87   16:50  273.0    73   40.3    10    222.0    14.9    999.0   0.00  
  87   17:00  242.0    71   42.9    11    214.7    14.9    999.0   0.00  
  87   17:10  217.0    68   46.9    12    213.4    14.3    999.0   0.00  
  87   17:20  159.0    66   49.9    12    212.3    14.3    999.0   0.00  
  87   17:30  129.0    66   48.8    12    210.2    14.3    999.0   0.00  
  87   17:40   92.0    66   47.8    12    210.8    14.9    999.0   0.00  
  87   17:50   96.0    66   47.7    11    214.9    13.7    999.0   0.00  
  87   18:00   71.0    66   46.8    11    216.7    13.7    999.0   0.00  
  87   18:10   39.0    66   47.4    11    212.0    13.7    999.0   0.00  
  87   18:20   13.0    65   46.9    12    218.0    14.3    999.0   0.00  
  87   18:30    2.0    65   46.9    12    212.5    13.1    999.0   0.00  
  87   18:40    0.0    65   45.8    12    212.3    14.3    999.0   0.00  
  87   18:50    0.0    65   44.7    12    214.3    14.3    999.0   0.00  
  87   19:00    0.0    65   43.8    12    213.4    14.3    999.0   0.00  
  87   19:10    0.0    65   43.4    12    213.4    13.7    999.0   0.00  
  87   19:20    0.0    66   44.3    11    214.8    13.1    999.0   0.00  
  87   19:30    0.0    65   44.7    10    212.0    11.9    999.0   0.00  
  87   19:40    0.0    65   44.4    10    212.7    11.3    999.0   0.00  
  87   19:50    0.0    66   42.9     9    214.6    10.8    999.0   0.00  
  87   20:00    0.0    67   43.0     7    214.7     8.4    999.0   0.00  
  87   20:10    0.0    67   39.3     7    220.9     7.8    999.0   0.00  
  87   20:20    0.0    69   33.2     7    222.6     7.8    999.0   0.00  
  87   20:30    0.0    68   34.0     7    214.8     7.8    999.0   0.00  
  87   20:40    0.0    69   33.4     7    217.5     7.8    999.0   0.00  
  87   20:50    0.0    69   31.7     5    237.8     6.6    999.0   0.00  
  87   21:00    0.0    68   32.3     5    227.9     5.4    999.0   0.00  
  87   21:10    0.0    68   31.5     3    230.4     4.8    999.0   0.00  
  87   21:20    0.0    69   30.3     4    221.7     4.8    999.0   0.00  
  87   21:30    0.0    69   29.7     4    222.6     5.4    999.0   0.00  
  87   21:40    0.0    69   29.4     4    255.4     4.8    999.0   0.00  
  87   21:50    0.0    69   32.7     3    341.0     4.2    999.0   0.00  
  87   22:00    0.0    68   30.2     1    215.8     2.4    999.0   0.00  
  87   22:10    0.0    68   29.5     2    211.6     2.4    999.0   0.00  
  87   22:20    0.0    69   28.2     1     27.4     3.0    999.0   0.00  
  87   22:30    0.0    69   27.8     1     43.9     1.8    999.0   0.00  
  87   22:40    0.0    68   28.3     1    117.0     3.0    999.0   0.00  
  87   22:50    0.0    68   34.5     3    158.6     4.2    999.0   0.00  
  87   23:00    0.0    67   40.0     3    148.4     4.2    999.0   0.00  
  87   23:10    0.0    67   40.2     4    147.7     5.4    999.0   0.00  
  87   23:20    0.0    67   40.7     5    151.3     6.0    999.0   0.00  
  87   23:30    0.0    66   42.3     5    158.1     6.0    999.0   0.00  
  87   23:40    0.0    66   42.4     6    149.4     6.0    999.0   0.00  
  87   23:50    0.0    66   42.8     5    154.7     6.6    999.0   0.00  
  88    0:00    0.0    66   42.3     4    158.4     5.4    999.0   0.00  
  88    0:10    0.0    66   41.9     6    170.3     8.4    999.0   0.00  
  88    0:20    0.0    66   43.1     5    162.5     6.6    999.0   0.00  
  88    0:30    0.0    66   42.4     6    176.0     7.8    999.0   0.00  
  88    0:40    0.0    65   44.6     6    170.4     7.2    999.0   0.00  
  88    0:50    0.0    65   44.7     6    172.3     7.8    999.0   0.00  
  88    1:00    0.0    65   47.1     7    159.5     7.8    999.0   0.00  
  88    1:10    0.0    65   46.9     6    165.1     7.2    999.0   0.00  
  88    1:20    0.0    64   46.4     6    176.2     7.2    999.0   0.00  
  88    1:30    0.0    64   46.3     6    168.8     7.8    999.0   0.00  
  88    1:40    0.0    64   46.9     7    190.3     8.4    999.0   0.00  
  88    1:50    0.0    64   46.7     7    189.8     7.8    999.0   0.00  
  88    2:00    0.0    64   47.5     7    201.2     8.4    999.0   0.00  
  88    2:10    0.0    63   47.9     7    203.2     8.4    999.0   0.00  
  88    2:20    0.0    64   46.0     8    205.8     9.0    999.0   0.00  
  88    2:30    0.0    63   46.5     9    206.3    10.2    999.0   0.00  
  88    2:40    0.0    63   43.4     9    208.9     9.6    999.0   0.00  
  88    2:50    0.0    62   47.2     9    214.3    10.2    999.0   0.00  
  88    3:00    0.0    61   50.6     8    221.3     9.6    999.0   0.00  
  88    3:10    0.0    59   57.5     8    220.6     9.0    999.0   0.00  
  88    3:20    0.0    62   44.8     7    226.2     8.4    999.0   0.00  
  88    3:30    0.0    63   41.9     6    226.5     7.2    999.0   0.00  
  88    3:40    0.0    64   41.2     6    239.4     7.2    999.0   0.00  
  88    3:50    0.0    64   41.6     7    230.3     8.4    999.0   0.00  
  88    4:00    0.0    63   42.7     8    234.7     8.4    999.0   0.00  
  88    4:10    0.0    64   41.7     8    231.6     9.0    999.0   0.00  
  88    4:20    0.0    64   41.5     8    234.6     9.0    999.0   0.00  
  88    4:30    0.0    64   38.5     8    230.6     9.6    999.0   0.00  
  88    4:40    0.0    65   35.8     8    226.3     9.0    999.0   0.00  
  88    4:50    0.0    66   32.1     7    224.1     7.8    999.0   0.00  
  88    5:00    0.0    66   32.0     6    227.2     7.2    999.0   0.00  
  88    5:10    0.0    66   32.7     6    217.6     7.2    999.0   0.00  
  88    5:20    0.0    66   33.1     6    209.2     7.2    999.0   0.00  
  88    5:30    0.0    66   33.9     7    198.3     7.2    999.0   0.00  
  88    5:40    1.0    66   35.8     6    205.1     6.0    999.0   0.00  
  88    5:50    2.0    65   36.0     5    200.8     6.0    999.0   0.00  
  88    6:00    8.0    65   36.8     5    206.8     6.6    999.0   0.00  
  88    6:10   23.0    64   39.7     5    207.0     6.0    999.0   0.00  
  88    6:20   38.0    64   40.9     4    207.3     5.4    999.0   0.00  
  88    6:30   54.0    64   41.2     3    215.5     4.2    999.0   0.00  
  88    6:40   84.0    65   40.5     2    206.8     3.6    999.0   0.00  
  88    6:50   75.0    64   40.6     2    349.8     3.0    999.0   0.00  
  88    7:00   74.0    65   38.2     3    199.2     3.6    999.0   0.00  
  88    7:10   92.0    67   31.7     3    104.9     3.6    999.0   0.00  
  88    7:20   99.0    65   38.9     5     15.1     6.6    999.0   0.00  
  88    7:30  284.0    64   41.1     6     11.6     6.6    999.0   0.00  
  88    7:40  369.0    65   38.9     6      9.6     7.8    999.0   0.00  
  88    7:50  413.0    67   37.2     4      9.9     6.0    999.0   0.00  
  88    8:00  446.0    69   35.0     3     28.9     4.8    999.0   0.00  
  88    8:10  484.0    68   35.8     4     44.0     5.4    999.0   0.00  
  88    8:20  491.0    69   38.4     4     52.3     6.0    999.0   0.00  
  88    8:30  452.0    68   41.0     6     25.8     8.4    999.0   0.00  
  88    8:40  584.0    65   61.3     6     21.2     8.4    999.0   0.00  
  88    8:50  614.0    65   47.8     5     33.0     7.2    999.0   0.00  
  88    9:00  646.0    68   41.9     3     39.1     6.0    999.0   0.00  
  88    9:10  679.0    71   45.5     2    130.4     4.2    999.0   0.00  
  88    9:20  712.0    72   51.5     3     52.4     4.8    999.0   0.00  
  88    9:30  752.0    72   45.9     3     58.1     5.4    999.0   0.00  
  88    9:40  754.0    67   66.1     4     17.2     7.2    999.0   0.00  
  88    9:50  564.0    67   66.4     3     39.0     4.8    999.0   0.00  
  88   10:00  810.0    68   59.5     4     33.5     6.0    999.0   0.00  
  88   10:10  830.0    68   63.2     3     42.6     6.0    999.0   0.00  
  88   10:20  842.0    67   68.4     4     35.3     6.6    999.0   0.00  
  88   10:30  859.0    66   70.7     2     58.8     4.8    999.0   0.00  
  88   10:40  875.0    71   62.4     3    121.4     4.2    999.0   0.00  
  88   10:50  891.0    71   61.6     2     87.4     6.0    999.0   0.00  
  88   11:00  906.0    72   59.4     3    164.9     4.8    999.0   0.00  
  88   11:10  924.0    73   54.9     3    182.5     5.4    999.0   0.00  
  88   11:20  939.0    72   57.7     3    199.5     5.4    999.0   0.00  
  88   11:30  923.0    71   55.2     4    195.3     5.4    999.0   0.00  
  88   11:40  901.0    71   48.0     4    198.0     5.4    999.0   0.00  
  88   11:50  934.0    72   38.7     4    199.5     5.4    999.0   0.00  
  88   12:00  941.0    74   41.4     3    205.8     4.8    999.0   0.00  
  88   12:10  939.0    74   54.5     3    181.4     4.8    999.0   0.00  
  88   12:20  936.0    73   58.6     3    167.2     4.2    999.0   0.00  
  88   12:30  934.0    74   55.1     3    156.4     4.2    999.0   0.00  
  88   12:40  928.0    74   55.5     3    151.1     4.8    999.0   0.00  
  88   12:50  920.0    73   57.0     2     80.6     4.2    999.0   0.00  
  88   13:00  912.0    77   45.7     3    152.5     4.2    999.0   0.00  
  88   13:10  900.0    78   41.2     2    155.2     3.6    999.0   0.00  
  88   13:20  888.0    79   43.8     2    170.4     4.2    999.0   0.00  
  88   13:30  873.0    78   45.6     2    186.4     4.8    999.0   0.00  
  88   13:40  856.0    78   45.3     3    198.4     5.4    999.0   0.00  
  88   13:50  838.0    77   42.9     5    195.3     7.2    999.0   0.00  
  88   14:00  816.0    74   40.3     6    212.2     8.4    999.0   0.00  
  88   14:10  795.0    76   42.2     4    214.1     7.2    999.0   0.00  
  88   14:20  773.0    74   36.8     5    210.9     6.6    999.0   0.00  
  88   14:30  748.0    73   33.0     6    211.5     7.2    999.0   0.00  
  88   14:40  722.0    74   38.9     4    215.3     6.6    999.0   0.00  
  88   14:50  695.0    75   43.2     3    221.1     5.4    999.0   0.00  
  88   15:00  668.0    76   44.9     3    205.7     5.4    999.0   0.00  
  88   15:10  638.0    77   36.6     5    207.4     6.6    999.0   0.00  
  88   15:20  607.0    72   49.1     5    211.3     7.8    999.0   0.00  
  88   15:30  576.0    73   42.8     5    214.5     7.2    999.0   0.00  
  88   15:40  544.0    72   46.0     6    209.0     7.8    999.0   0.00  
  88   15:50  510.0    70   55.9     6    215.3     7.8    999.0   0.00  
  88   16:00  475.0    69   50.7     5    219.1     7.2    999.0   0.00  

Return to Silver Peak Trail graphs page.


Western Regional Climate Center,wrcc@dri.edu